Airfield :
LOGIN :

Register | Disclaimer

   EN    FR    IT 

 










Legend :    VFR   Marginal VFR   IFR   Intensive IFR   Very Intensive IFR
Visi :
Ceiling :
>= 8 km
>= 3000ft
5 to 8 km
1000 to 3000 ft
1500m to 5 km
500 to 1000 ft
800 to 1500m
200 to 500 ft
< 800m
< 200 ft
Symbols :   Thunderstorms  Fog  Heavy snow  Heavy precipitations  Wind > 20 kt
SIGMETs :     Misc.  Thunderstorms  Icing  Turbulence  Mountain Waves  Volcanic Ashes







- Airport Elevation : 416 ft
- IATA code : OVD


LEAS - Asturias

CURRENT METAR :
  • 230430Z 30006KT 9999 FEW009 13/12 Q1018 NOSIG

EXPIRED METARs :
  • 230400Z 30006KT 9999 FEW012 13/12 Q1018 NOSIG
  • 230330Z AUTO 31009KT 280V340 9999 FEW011 13/12 Q1018
  • 230300Z AUTO 30009KT 280V350 CAVOK 14/11 Q1018
  • 230230Z AUTO 31010KT CAVOK 14/10 Q1017
  • 230200Z AUTO 30008KT CAVOK 14/10 Q1017

TAF TAF LEAS
Valid from the 23 at 03:00 until the 24 at 03:00 UTC


230200Z 2303/2403 30009KT CAVOK TX17/2313Z TN11/2305Z
PROB40
TEMPO 2303/2307 3000 BR
TEMPO 2315/2321 29015G25KT
PROB40
TEMPO 2318/2321 3000 -RADZ BKN005 BKN010
No reported NOTAMs for that airfield.



MET'MAP, your aeronautical weather chart ! - Copyright ORBIFLY December 2007 - Disclaimer

ORBIFLY MET'MAP TEAM :

Programming & Development : Alexandra Zaïnal
Concept & Development : Baudouin d'Aumeries
Co-Development & Prog : Marc-Olivier Méhu
Technical & hardware support : Manuel Goepfert

Contact : metmap@orbifly.com




SOURCES & CREDITS :

   NOAA